Terminal Aerodrome Forecast
Issued by NWS

Home | Current Version | Previous Version | Text Only | Print | Product List | Glossary On
Versions: 1 2 3 4 5 6 7 8 9 10 11 12 13 14 15 16 17 18 19 20 21 22 23 24 25 26 27 28 29 30 31 32
000
FTUS45 KBOU 160902 AAA
TAFAPA
TAF AMD
KAPA 160902Z 1609/1706 16010KT P6SM SCT200
     FM161400 15007KT P6SM FEW130 BKN200
     FM161900 05006KT P6SM SCT100 BKN130
     FM162100 VRB05KT P6SM SCT060 BKN080 OVC120
     FM170200 17006KT P6SM FEW060 SCT080 BKN120
     FM170500 20009KT P6SM FEW100 SCT140=

USA.gov is the U.S. government's official web portal to all federal, state and local government web resources and services.